Latest Weather Observations for Goulburn Airport

IDN60801

Issued at 11:05 pm EDT Thursday 23 October 2014 (issued every 30 minutes, with the page automatically refreshed every 10 minutes)

About weather observations | Map of weather stations | Latest weather observations for NSW | Other Formats
Station Details ID: 070330 Name: GOULBURN AIRPORT AWS Lat: -34.81 Lon: 149.73 Height: 640.0 m
Data from the previous 72 hours. | See also: Recent months at Goulburn Airport
Date/Time
EDT
Temp
°C
App
Temp
°C
Dew
Point
Rel
Hum
%
Delta-T
°C
Wind Press
QNH
hPa
Press
MSL
hPa
Rain
since 9 am
mm
Dir
 
Spd
km/h
Gust
km/h
Spd
kts
Gust
kts
23/11:00pm 15.8 14.4 13.5 86 1.3 SE 13 17 7 9 1022.4 1021.8 3.2
23/10:30pm 15.6 14.1 13.1 85 1.4 SE 13 17 7 9 1021.9 1021.2 3.2
23/10:00pm 16.3 13.7 13.8 85 1.5 SE 20 26 11 14 1022.0 1021.3 3.2
23/09:30pm 16.0 17.0 13.1 83 1.7 CALM 0 0 0 0 1021.4 1020.8 3.2
23/09:00pm 17.2 16.2 13.3 78 2.3 E 11 13 6 7 1021.2 1020.6 3.2
23/08:30pm 17.9 16.1 13.4 75 2.6 E 15 20 8 11 1021.2 1020.6 3.2
23/08:00pm 18.9 16.6 14.2 74 2.8 NE 19 30 10 16 1020.9 1020.3 3.2
23/07:30pm 18.9 17.6 12.4 66 3.7 NE 11 15 6 8 1020.5 1019.8 3.2
23/07:00pm 19.6 17.9 12.6 64 4.0 E 13 19 7 10 1019.6 1019.0 3.0
23/06:30pm 19.2 18.8 12.9 67 3.7 E 7 11 4 6 1019.2 1018.5 3.0
23/06:00pm 20.2 20.0 12.9 63 4.3 S 6 11 3 6 1019.0 1018.3 3.0
23/05:30pm 21.0 19.9 13.2 61 4.6 E 11 17 6 9 1018.8 1018.1 3.0
23/05:00pm 16.8 15.4 15.5 92 0.8 SE 17 19 9 10 1019.4 1018.7 3.0
23/04:30pm 20.5 17.1 11.2 55 5.3 SSE 20 30 11 16 1019.5 1018.9 0.0
23/04:00pm 24.1 20.4 11.4 45 7.3 ESE 22 28 12 15 1018.8 1018.1 0.0
23/03:30pm 26.2 24.3 9.1 34 9.6 S 9 13 5 7 1018.5 1017.8 0.0
23/03:00pm 26.9 25.4 8.4 31 10.3 S 6 9 3 5 1018.6 1017.9 0.0
23/02:30pm 26.3 24.4 10.5 37 9.1 NW 11 17 6 9 1018.4 1017.7 0.0
23/02:00pm 26.2 24.8 9.5 35 9.4 SW 7 11 4 6 1018.9 1018.2 0.0
23/01:30pm 25.8 24.3 9.2 35 9.3 WNW 7 13 4 7 1019.3 1018.6 0.0
23/01:00pm 25.4 23.2 10.8 40 8.4 W 13 20 7 11 1019.7 1019.1 0.0
23/12:30pm 24.8 22.5 10.3 40 8.3 W 13 20 7 11 1020.1 1019.4 0.0
23/12:00pm 24.6 21.9 12.9 48 6.9 W 19 24 10 13 1020.3 1019.6 0.0
23/11:30am 24.3 21.1 13.2 50 6.6 W 22 28 12 15 1020.6 1019.9 0.0
23/11:00am 23.7 21.2 12.4 49 6.6 W 17 22 9 12 1020.7 1020.0 0.0
23/10:30am 22.8 20.8 13.8 57 5.4 WNW 17 22 9 12 1020.8 1020.1 0.0
23/10:00am 21.6 20.1 13.0 58 5.0 WNW 13 17 7 9 1020.7 1020.0 0.0
23/09:30am 19.7 19.2 13.9 69 3.4 NNW 9 13 5 7 1020.6 1019.9 0.0
23/09:00am 17.9 17.6 13.2 74 2.7 N 7 9 4 5 1020.5 1019.8 0.0
23/08:30am 17.0 16.8 13.5 80 2.0 N 7 9 4 5 1020.4 1019.7 0.0
23/08:00am 14.6 13.3 12.5 87 1.2 N 11 15 6 8 1020.5 1019.8 0.0
23/07:30am 12.1 11.3 11.6 97 0.3 N 7 11 4 6 1020.4 1019.7 0.0
23/07:00am 9.1 8.4 8.5 96 0.3 NNE 2 6 1 3 1020.4 1019.7 0.0
23/06:30am 7.7 7.0 7.0 95 0.3 CALM 0 0 0 0 1020.2 1019.5 0.0
23/06:00am 8.5 8.0 7.9 96 0.3 N 0 0 0 0 1020.1 1019.4 0.0
23/05:30am 8.0 7.4 7.4 96 0.3 CALM 0 0 0 0 1019.9 1019.2 0.0
23/05:00am 8.0 7.4 7.4 96 0.3 CALM 0 0 0 0 1019.6 1019.0 0.0
23/04:30am 8.0 6.2 7.2 95 0.4 N 6 9 3 5 1019.2 1018.5 0.0
23/04:00am 8.0 6.0 7.2 95 0.4 N 7 9 4 5 1019.3 1018.6 0.0
23/03:30am 7.8 7.1 6.9 94 0.4 CALM 0 0 0 0 1019.4 1018.7 0.0
23/03:00am 8.2 7.6 7.4 95 0.4 SE 0 0 0 0 1019.6 1019.0 0.0
23/02:30am 8.4 7.8 7.5 94 0.4 CALM 0 0 0 0 1019.6 1019.0 0.0
23/02:00am 8.7 8.2 7.9 95 0.4 CALM 0 0 0 0 1020.1 1019.4 0.0
23/01:30am 8.8 8.3 7.9 94 0.4 CALM 0 0 0 0 1020.1 1019.4 0.0
23/01:00am 9.4 9.1 8.5 94 0.5 CALM 0 0 0 0 1020.5 1019.8 0.0
23/12:30am 9.2 8.0 8.1 93 0.5 E 4 6 2 3 1020.6 1019.9 0.0
23/12:00am 10.2 10.1 9.3 94 0.5 CALM 0 0 0 0 1020.7 1020.0 0.0
 
Date/Time
EDT
Temp
°C
App
Temp
°C
Dew
Point
Rel
Hum
%
Delta-T
°C
Wind Press
QNH
hPa
Press
MSL
hPa
Rain
since 9 am
mm
Dir
 
Spd
km/h
Gust
km/h
Spd
kts
Gust
kts
22/11:30pm 10.0 9.7 8.8 92 0.6 CALM 0 0 0 0 1020.7 1020.0 0.0
22/11:00pm 10.5 10.2 8.8 89 0.9 CALM 0 0 0 0 1020.8 1020.1 0.0
22/10:30pm 11.0 10.9 9.4 90 0.8 CALM 0 0 0 0 1020.9 1020.3 0.0
22/10:00pm 12.7 12.0 10.2 85 1.3 N 4 7 2 4 1021.0 1020.4 0.0
22/09:30pm 12.4 11.6 9.8 84 1.4 N 4 6 2 3 1020.9 1020.3 0.0
22/09:00pm 13.8 14.1 10.8 82 1.6 CALM 0 0 0 0 1020.8 1020.1 0.0
22/08:30pm 14.3 13.3 10.9 80 1.9 ESE 7 9 4 5 1020.5 1019.8 0.0
22/08:00pm 16.4 15.5 11.3 72 2.8 NNW 7 9 4 5 1020.3 1019.6 0.0
22/07:30pm 18.3 16.5 12.1 67 3.5 NW 13 15 7 8 1020.3 1019.6 0.0
22/07:00pm 20.1 18.4 12.6 62 4.3 NW 13 17 7 9 1020.2 1019.5 0.0
22/06:30pm 21.9 20.2 13.5 59 5.0 NW 15 19 8 10 1020.2 1019.5 0.0
22/06:00pm 22.6 20.6 12.8 54 5.8 NW 15 20 8 11 1020.0 1019.3 0.0
22/05:30pm 23.0 20.3 12.9 53 6.0 WNW 19 24 10 13 1020.2 1019.5 0.0
22/05:00pm 23.0 20.3 12.9 53 6.0 WNW 19 24 10 13 1020.3 1019.6 0.0
22/04:30pm 23.0 20.0 12.6 52 6.1 WNW 20 28 11 15 1020.4 1019.7 0.0
22/04:00pm 23.1 20.7 12.7 52 6.1 W 17 26 9 14 1020.7 1020.0 0.0
22/03:30pm 23.0 19.9 12.3 51 6.3 W 20 30 11 16 1021.0 1020.4 0.0
22/03:00pm 22.7 19.6 12.3 52 6.1 WNW 20 22 11 12 1021.3 1020.7 0.0
22/02:30pm 22.4 19.2 11.8 51 6.1 W 20 30 11 16 1021.9 1021.2 0.0
22/02:00pm 22.1 20.7 13.5 58 5.1 WNW 13 20 7 11 1022.3 1021.7 0.0
22/01:30pm 21.4 19.9 13.1 59 4.9 W 13 19 7 10 1022.7 1022.1 0.0
22/01:00pm 20.7 19.2 11.9 57 5.0 NW 11 19 6 10 1023.5 1022.8 0.0
22/12:30pm 19.2 17.4 11.0 59 4.6 WNW 11 17 6 9 1023.9 1023.3 0.0
22/12:00pm 18.0 16.9 10.6 62 4.1 NNE 7 13 4 7 1024.4 1023.8 0.0
22/11:30am 17.1 16.0 10.5 65 3.6 NW 7 17 4 9 1025.0 1024.4 0.0
22/11:00am 15.9 14.2 10.0 68 3.2 N 9 13 5 7 1025.5 1024.9 0.0
22/10:30am 14.7 12.8 9.1 69 3.0 N 9 15 5 8 1025.8 1025.2 0.0
22/10:00am 13.6 12.0 8.7 72 2.5 NNW 7 13 4 7 1026.3 1025.8 0.0
22/09:30am 12.7 10.6 8.4 75 2.2 NNW 9 17 5 9 1026.3 1025.8 0.0
22/09:17am 12.7 10.9 8.0 73 2.4 ENE 7 9 4 5 1026.2 1025.6 0.0
22/09:00am 11.2 9.3 7.5 78 1.8 N 7 11 4 6 1026.2 1025.6 0.0
22/08:30am 11.4 9.9 8.3 81 1.6 NNE 6 13 3 7 1026.0 1025.4 0.0
22/08:00am 10.0 7.2 7.1 82 1.4 NNE 11 17 6 9 1026.0 1025.4 0.0
22/07:30am 9.8 6.7 7.4 85 1.2 NNE 13 19 7 10 1026.1 1025.5 0.0
22/07:00am 9.6 6.1 7.2 85 1.2 NNE 15 17 8 9 1026.2 1025.6 0.0
22/06:30am 9.5 6.4 7.3 86 1.1 NE 13 19 7 10 1026.1 1025.5 0.0
22/06:00am 9.6 6.9 7.2 85 1.2 ENE 11 17 6 9 1026.2 1025.6 0.0
22/05:30am 9.8 7.2 7.6 86 1.1 NE 11 13 6 7 1026.1 1025.5 0.0
22/05:00am 9.8 7.2 7.7 87 1.0 NE 11 17 6 9 1026.1 1025.5 0.0
22/04:30am 9.8 7.2 7.7 87 1.0 NE 11 17 6 9 1026.3 1025.8 0.0
22/04:00am 9.9 6.9 7.7 86 1.1 NE 13 19 7 10 1026.6 1026.0 0.0
22/03:49am 9.9 6.9 7.7 86 1.1 NE 13 19 7 10 1026.7 1026.1 0.0
22/03:30am 9.9 6.5 7.7 86 1.1 NE 15 20 8 11 1026.9 1026.3 0.0
22/03:00am 9.9 6.5 7.5 85 1.2 NE 15 20 8 11 1027.4 1026.8 0.0
22/02:30am 9.9 7.6 7.5 85 1.2 NNE 9 15 5 8 1027.8 1027.3 0.0
22/02:19am 9.8 7.9 7.4 85 1.2 NNE 7 11 4 6 1028.0 1027.5 0.0
22/02:00am 9.8 7.4 7.1 83 1.3 NE 9 11 5 6 1028.3 1027.7 0.0
22/01:30am 9.9 6.8 7.2 83 1.3 ENE 13 19 7 10 1028.7 1028.1 0.0
22/01:00am 9.8 6.2 6.9 82 1.4 ENE 15 20 8 11 1029.0 1028.5 0.0
22/12:30am 9.8 5.9 6.9 82 1.4 ENE 17 22 9 12 1029.5 1029.0 0.0
22/12:00am 9.9 5.6 7.0 82 1.4 ENE 19 28 10 15 1029.9 1029.3 0.0
 
Date/Time
EDT
Temp
°C
App
Temp
°C
Dew
Point
Rel
Hum
%
Delta-T
°C
Wind Press
QNH
hPa
Press
MSL
hPa
Rain
since 9 am
mm
Dir
 
Spd
km/h
Gust
km/h
Spd
kts
Gust
kts
21/11:30pm 9.9 5.6 7.0 82 1.4 ENE 19 24 10 13 1030.2 1029.6 0.0
21/11:00pm 10.2 5.7 7.1 81 1.5 ENE 20 28 11 15 1030.4 1029.9 0.0
21/10:30pm 10.4 5.9 7.1 80 1.6 ENE 20 26 11 14 1030.5 1030.0 0.0
21/10:00pm 10.7 6.9 7.4 80 1.6 ENE 17 24 9 13 1030.8 1030.3 0.0
21/09:30pm 10.8 6.6 7.3 79 1.7 ENE 19 24 10 13 1030.6 1030.1 0.0
21/09:00pm 10.8 6.6 7.3 79 1.7 ENE 19 24 10 13 1030.5 1030.0 0.0
21/08:57pm 10.8 6.6 7.3 79 1.7 ENE 19 24 10 13 1030.4 1029.9 0.0
21/08:30pm 10.9 7.5 7.8 81 1.6 ENE 15 19 8 10 1030.4 1029.9 0.0
21/08:27pm 10.9 7.5 7.8 81 1.6 ENE 15 19 8 10 1030.4 1029.9 0.0
21/08:17pm 10.9 6.8 7.8 81 1.6 ENE 19 24 10 13 1030.3 1029.7 0.0
21/08:00pm 10.9 7.6 8.1 83 1.4 ENE 15 22 8 12 1030.2 1029.6 0.0
21/07:30pm 11.2 7.5 7.9 80 1.7 ENE 17 22 9 12 1029.6 1029.1 0.0
21/07:10pm 11.3 7.2 8.0 80 1.7 ENE 19 28 10 15 1029.5 1029.0 0.0
21/07:00pm 11.4 7.3 7.9 79 1.8 ENE 19 26 10 14 1029.4 1028.9 0.0
21/06:59pm 11.4 7.3 7.9 79 1.8 ENE 19 26 10 14 1029.4 1028.9 0.0
21/06:40pm 11.5 7.5 8.2 80 1.7 ENE 19 26 10 14 1029.4 1028.9 0.0
21/06:30pm 11.6 7.4 8.1 79 1.8 ENE 20 26 11 14 1029.4 1028.9 0.0
21/06:00pm 11.9 7.3 8.2 78 1.9 ENE 22 30 12 16 1029.3 1028.8 0.0
21/05:30pm 12.0 7.8 8.1 77 2.0 ENE 20 30 11 16 1029.3 1028.8 0.0
21/05:00pm 12.9 8.6 8.0 72 2.5 ENE 20 28 11 15 1029.3 1028.8 0.0
21/04:30pm 12.9 8.8 7.8 71 2.6 ENE 19 24 10 13 1029.4 1028.9 0.0
21/04:00pm 13.5 9.8 8.1 70 2.8 ESE 17 24 9 13 1029.4 1028.9 0.0
21/03:30pm 13.6 9.1 8.7 72 2.6 E 22 30 12 16 1029.5 1029.0 0.0
21/03:00pm 13.1 8.9 7.5 69 2.8 E 19 28 10 15 1030.1 1029.5 0.0
21/02:30pm 13.5 9.5 8.4 71 2.6 E 19 24 10 13 1030.4 1029.9 0.0
21/02:00pm 13.0 8.6 7.5 69 2.8 NNE 20 28 11 15 1030.8 1030.3 0.0
21/01:30pm 13.2 8.6 8.1 71 2.6 NE 22 28 12 15 1031.1 1030.6 0.0
21/01:00pm 12.2 7.1 7.7 74 2.3 ENE 24 32 13 17 1031.8 1031.3 0.0
21/12:48pm 12.1 7.3 7.2 72 2.4 E 22 28 12 15 1031.8 1031.3 0.0
21/12:30pm 12.2 7.5 7.7 74 2.3 E 22 28 12 15 1032.1 1031.6 0.0
21/12:27pm 12.1 7.8 7.8 75 2.2 E 20 28 11 15 1032.1 1031.6 0.0
21/12:00pm 12.1 7.9 7.4 73 2.3 E 19 28 10 15 1032.2 1031.7 0.0
21/11:59am 12.2 8.0 7.5 73 2.4 E 19 28 10 15 1032.2 1031.7 0.0
21/11:30am 12.0 7.4 8.1 77 2.0 E 22 33 12 18 1032.6 1032.1 0.0
21/11:13am 11.9 6.8 7.8 76 2.1 E 24 30 13 16 1032.6 1032.1 0.0
21/11:00am 11.6 6.4 7.3 75 2.1 E 24 33 13 18 1032.5 1032.0 0.0
21/10:30am 11.9 7.5 7.4 74 2.3 E 20 33 11 18 1032.5 1032.0 0.0
21/10:00am 11.5 6.5 6.6 72 2.4 E 22 28 12 15 1032.6 1032.1 0.0
21/09:57am 11.7 6.8 6.8 72 2.4 E 22 28 12 15 1032.6 1032.1 0.0
21/09:30am 11.3 6.0 7.0 75 2.1 E 24 35 13 19 1032.4 1031.9 0.0
21/09:00am 10.5 5.2 6.8 78 1.8 E 24 32 13 17 1032.3 1031.8 0.0
21/08:30am 10.1 5.2 6.8 80 1.6 E 22 30 12 16 1032.2 1031.7 0.0
21/08:00am 9.6 5.2 6.7 82 1.4 E 19 24 10 13 1032.0 1031.5 0.0
21/07:30am 9.3 5.3 6.7 84 1.3 E 17 26 9 14 1031.7 1031.1 0.0
21/07:00am 9.0 4.6 6.6 85 1.1 E 19 24 10 13 1031.3 1030.8 0.0
21/06:30am 8.9 4.9 6.7 86 1.1 E 17 24 9 13 1031.0 1030.5 0.0
21/06:00am 8.9 4.9 6.7 86 1.1 E 17 26 9 14 1030.8 1030.3 0.0
21/05:30am 8.7 5.4 6.5 86 1.1 E 13 19 7 10 1030.7 1030.2 0.0
21/05:00am 8.7 5.8 6.3 85 1.1 E 11 13 6 7 1030.8 1030.3 0.0
21/04:30am 8.7 5.8 6.5 86 1.1 E 11 15 6 8 1030.8 1030.3 0.0
21/04:00am 8.7 5.4 6.5 86 1.0 E 13 22 7 12 1031.0 1030.5 0.0
21/03:30am 8.7 5.1 6.7 87 1.0 E 15 22 8 12 1031.1 1030.6 0.0
21/03:00am 8.7 4.2 6.8 88 0.9 E 20 28 11 15 1031.2 1030.7 0.0
21/02:30am 8.8 4.9 7.3 90 0.7 ESE 17 24 9 13 1031.2 1030.7 0.0
21/02:00am 9.1 4.8 7.1 87 1.0 ESE 19 26 10 14 1031.2 1030.7 0.0
21/01:30am 9.2 4.9 7.0 86 1.1 E 19 24 10 13 1031.4 1030.9 0.0
21/01:00am 9.2 4.9 7.0 86 1.1 ESE 19 28 10 15 1031.6 1031.0 0.0
21/12:58am 9.2 4.9 7.2 87 1.0 ESE 19 28 10 15 1031.6 1031.0 0.0
21/12:30am 9.2 4.3 7.0 86 1.1 ESE 22 30 12 16 1031.8 1031.3 0.0
21/12:00am 9.3 4.0 6.9 85 1.2 ESE 24 32 13 17 1031.8 1031.3 0.0
 
Date/Time
EDT
Temp
°C
App
Temp
°C
Dew
Point
Rel
Hum
%
Delta-T
°C
Wind Press
QNH
hPa
Press
MSL
hPa
Rain
since 9 am
mm
Dir
 
Spd
km/h
Gust
km/h
Spd
kts
Gust
kts
20/11:44pm 9.4 4.1 7.0 85 1.2 ESE 24 32 13 17 1031.9 1031.4 0.0
20/11:30pm 9.4 3.3 6.8 84 1.3 ESE 28 39 15 21 1032.0 1031.5 0.0

Other Formats:

Comma delimited format used in spreadsheet applications
http://www.bom.gov.au/fwo/IDN60801/IDN60801.95716.axf

JavaScript Object Notation format (JSON) in row-major order
http://www.bom.gov.au/fwo/IDN60801/IDN60801.95716.json